CheckWX is a tool to help pilots better visualize weather data.  It is not intended as a substitute for an official pre-flight weather briefing.

16:45:54 UTC

SKIB METAR
Perales Airport
Ibagué, Colombia
Current

46 mins ago

SKIB 251600Z 04006KT 9999 BKN030 SCT100 26/21 A3015
Observed
Jan-25 @ 16:00 UTC
Wind
  • 040° at 6 KTS
Visibility
10,000+ meters
Flight Rules
MVFR
Cloud Levels
  • Broken at 3,000' AGL
  • Scattered at 10,000' AGL
Temperature
26°C / 79°F
Dewpoint
21°C / 70°F
Humidity
74%
Altimeter
30.15" Hg
Pressure
1021.02 hPa
Previous

2 hours ago

SKIB 251500Z 16005KT 9999 BKN023 SCT100 24/21 A3016 METAR
Observed
Jan-25 @ 15:00 UTC
Wind
  • 160° at 5 KTS
Visibility
10,000+ meters
Flight Rules
MVFR
Cloud Levels
  • Broken at 2,300' AGL
  • Scattered at 10,000' AGL
Temperature
24°C / 75°F
Dewpoint
21°C / 70°F
Humidity
83%
Altimeter
30.16" Hg
Pressure
1021.32 hPa
Previous

3 hours ago

SKIB 251400Z 12004KT 9999 BKN023 SCT100 23/21 A3016 METAR
Observed
Jan-25 @ 14:00 UTC
Wind
  • 120° at 4 KTS
Visibility
10,000+ meters
Flight Rules
MVFR
Cloud Levels
  • Broken at 2,300' AGL
  • Scattered at 10,000' AGL
Temperature
23°C / 73°F
Dewpoint
21°C / 70°F
Humidity
89%
Altimeter
30.16" Hg
Pressure
1021.32 hPa